Time;durP1;ratioP1;P1;durP2;ratioP2;P2;SDS_P1;SDS_P2;PMS_P1;PMS_P2;Temp;Humidity;BMP_temperature;BMP_pressure;BME280_temperature;BME280_humidity;BME280_pressure;Samples;Min_cycle;Max_cycle;Signal;HPM_P1;HPM_P2
2023/06/10 00:00:26;;;;;;;6.30;3.90;;;;;;;17.03;69.04;98672.76;104858;1270;61188;-22
2023/06/10 00:02:55;;;;;;;6.80;4.40;;;;;;;16.89;68.80;98670.13;108667;1264;58822;-23
2023/06/10 00:05:23;;;;;;;12.30;4.40;;;;;;;16.72;69.81;98671.54;108711;1264;70740;-23
2023/06/10 00:07:50;;;;;;;5.00;4.10;;;;;;;16.55;70.18;98668.38;108599;1264;74412;-23
2023/06/10 00:10:18;;;;;;;9.80;4.80;;;;;;;16.40;70.06;98663.63;108651;1264;71440;-23
2023/06/10 00:12:45;;;;;;;6.80;4.60;;;;;;;16.26;70.48;98664.98;106883;1261;2421394;-23
2023/06/10 00:15:13;;;;;;;6.00;4.90;;;;;;;16.12;71.18;98663.01;108813;1263;60067;-23
2023/06/10 00:17:40;;;;;;;8.40;5.10;;;;;;;15.99;70.99;98658.92;108760;1261;71005;-23
2023/06/10 00:20:10;;;;;;;7.30;4.10;;;;;;;15.93;71.35;98659.80;108779;1263;74780;-23
2023/06/10 00:22:39;;;;;;;7.40;4.20;;;;;;;16.46;71.30;98653.93;108739;1263;72698;-23
2023/06/10 00:25:07;;;;;;;7.70;4.30;;;;;;;17.02;69.71;98649.09;108724;1261;60069;-23
2023/06/10 00:27:35;;;;;;;6.90;4.10;;;;;;;17.11;68.78;98649.84;108631;1263;59189;-23
2023/06/10 00:30:06;;;;;;;7.30;4.90;;;;;;;16.95;68.71;98649.55;108859;1263;71753;-23
2023/06/10 00:32:35;;;;;;;6.40;4.60;;;;;;;16.71;69.31;98646.04;108662;1262;73328;-24
2023/06/10 00:35:03;;;;;;;8.20;4.40;;;;;;;16.50;69.84;98646.20;108686;1262;72783;-23
2023/06/10 00:37:35;;;;;;;10.40;5.20;;;;;;;16.31;70.19;98643.25;108694;1265;60074;-23
2023/06/10 00:40:04;;;;;;;6.70;4.60;;;;;;;16.12;70.50;98638.68;109070;1256;60073;-23
2023/06/10 00:42:32;;;;;;;8.50;4.40;;;;;;;15.93;71.11;98638.65;109180;1255;72207;-23
2023/06/10 00:44:59;;;;;;;7.50;3.90;;;;;;;15.72;71.60;98640.66;109238;1256;74513;-23
2023/06/10 00:47:27;;;;;;;4.00;2.80;;;;;;;15.51;72.35;98640.52;109235;1255;72658;-23
2023/06/10 00:49:54;;;;;;;5.40;3.30;;;;;;;15.86;72.87;98638.11;109131;1258;58814;-23
2023/06/10 00:52:22;;;;;;;4.60;3.50;;;;;;;16.35;71.91;98634.39;109055;1255;59966;-23
2023/06/10 00:54:50;;;;;;;6.80;3.60;;;;;;;16.37;70.55;98635.05;109016;1256;72874;-23
2023/06/10 00:57:17;;;;;;;5.70;4.40;;;;;;;16.10;70.85;98633.66;109102;1256;74489;-23
2023/06/10 00:59:47;;;;;;;6.80;4.60;;;;;;;15.69;72.01;98635.22;109074;1256;72653;-24
2023/06/10 01:02:15;;;;;;;5.60;4.30;;;;;;;15.42;73.03;98638.23;109010;1256;60087;-23
2023/06/10 01:04:43;;;;;;;8.60;5.20;;;;;;;15.21;73.38;98638.85;109068;1256;58738;-23
2023/06/10 01:07:23;;;;;;;6.70;5.40;;;;;;;15.02;73.72;98640.20;109199;1256;73018;-23
2023/06/10 01:10:01;;;;;;;7.70;5.70;;;;;;;14.80;74.12;98641.06;109015;1256;74516;-23
2023/06/10 01:12:35;;;;;;;6.00;3.20;;;;;;;14.65;75.76;98639.66;108981;1256;72706;-23
2023/06/10 01:15:03;;;;;;;3.90;2.70;;;;;;;15.16;75.21;98648.25;108987;1256;60048;-23
2023/06/10 01:17:31;;;;;;;6.90;4.80;;;;;;;15.66;73.09;98641.17;109064;1256;60092;-24
2023/06/10 01:19:59;;;;;;;8.30;4.40;;;;;;;15.69;72.40;98640.00;109047;1256;71942;-24
2023/06/10 01:22:28;;;;;;;4.70;4.20;;;;;;;15.56;72.22;98641.25;109127;1256;74318;-24
2023/06/10 01:24:59;;;;;;;7.10;4.30;;;;;;;15.34;72.29;98643.88;109132;1256;71307;-24
2023/06/10 01:27:29;;;;;;;5.60;5.00;;;;;;;15.11;72.77;98645.86;109131;1257;60056;-23
2023/06/10 01:30:04;;;;;;;8.40;4.40;;;;;;;14.87;73.37;98645.95;109032;1256;60129;-23
2023/06/10 01:32:37;;;;;;;9.90;4.50;;;;;;;14.63;74.11;98647.05;108947;1256;73067;-24
2023/06/10 01:35:05;;;;;;;5.00;4.50;;;;;;;14.37;74.66;98646.66;109030;1256;72267;-23
2023/06/10 01:37:35;;;;;;;10.50;3.10;;;;;;;14.13;76.09;98649.00;109199;1256;70990;-23
2023/06/10 01:40:05;;;;;;;4.60;3.00;;;;;;;14.52;77.16;98650.07;109089;1256;60055;-24
2023/06/10 01:42:35;;;;;;;9.00;3.80;;;;;;;15.12;75.69;98649.96;108982;1264;58824;-23
2023/06/10 01:45:02;;;;;;;6.80;4.20;;;;;;;15.20;74.31;98646.45;109041;1256;71803;-24
2023/06/10 01:47:30;;;;;;;6.40;4.00;;;;;;;15.01;74.82;98647.80;109156;1256;73265;-23
2023/06/10 01:49:59;;;;;;;6.00;4.00;;;;;;;14.71;74.50;98647.20;109108;1258;72732;-23
2023/06/10 01:52:27;;;;;;;9.90;5.20;;;;;;;14.36;75.34;98647.54;109050;1256;60076;-23
2023/06/10 01:54:55;;;;;;;6.80;4.50;;;;;;;14.07;76.31;98643.25;109128;1256;58787;-23
2023/06/10 01:57:22;;;;;;;5.80;4.40;;;;;;;13.89;77.43;98648.11;109062;1256;73057;-24
2023/06/10 01:59:50;;;;;;;4.60;3.00;;;;;;;13.81;78.24;98648.20;109071;1256;74319;-23
2023/06/10 02:03:10;;;;;;;3.60;2.70;;;;;;;14.24;77.89;98651.29;109049;1256;72666;-23
2023/06/10 02:05:38;;;;;;;4.40;3.50;;;;;;;14.82;75.77;98644.54;109111;1257;60093;-23
2023/06/10 02:08:06;;;;;;;4.20;3.20;;;;;;;14.76;75.17;98641.69;109371;1253;58728;-23
2023/06/10 02:10:33;;;;;;;5.60;3.70;;;;;;;14.58;75.61;98640.19;109347;1258;73189;-23
2023/06/10 02:13:01;;;;;;;4.20;3.80;;;;;;;14.36;76.52;98641.41;109376;1252;73015;-23
2023/06/10 02:15:29;;;;;;;6.90;4.00;;;;;;;14.13;77.84;98636.77;109273;1253;72649;-23
2023/06/10 02:17:57;;;;;;;7.10;4.20;;;;;;;13.92;78.58;98641.13;109312;1254;58850;-23
2023/06/10 02:20:25;;;;;;;9.60;2.80;;;;;;;13.78;79.34;98640.63;109430;1253;60041;-24
2023/06/10 02:22:53;;;;;;;6.80;3.00;;;;;;;14.22;79.74;98640.55;109440;1253;73032;-23
2023/06/10 02:25:20;;;;;;;4.70;3.40;;;;;;;14.83;77.94;98641.99;109449;1253;74280;-23
2023/06/10 02:27:48;;;;;;;7.50;3.80;;;;;;;14.98;76.52;98642.53;109335;1252;72720;-23
2023/06/10 02:30:15;;;;;;;12.90;4.10;;;;;;;14.88;76.23;98643.54;109238;1254;60076;-23
2023/06/10 02:32:47;;;;;;;6.70;4.50;;;;;;;14.73;75.95;98642.11;109461;1253;60205;-23
2023/06/10 02:35:17;;;;;;;7.20;5.20;;;;;;;14.53;76.59;98647.48;109304;1253;71787;-23
2023/06/10 02:37:45;;;;;;;6.90;4.60;;;;;;;14.37;76.63;98651.23;109355;1252;73030;-23
2023/06/10 02:40:12;;;;;;;5.90;4.40;;;;;;;14.31;75.62;98654.66;109380;1253;72660;-23
2023/06/10 02:42:40;;;;;;;4.90;3.20;;;;;;;14.23;75.90;98651.98;109276;1253;60367;-23
2023/06/10 02:45:08;;;;;;;6.80;3.10;;;;;;;14.76;75.82;98657.95;109360;1253;58760;-23
2023/06/10 02:47:41;;;;;;;7.20;3.70;;;;;;;15.35;74.19;98655.92;109271;1260;73114;-24
2023/06/10 02:50:09;;;;;;;7.90;4.20;;;;;;;15.48;73.63;98655.19;109239;1253;74470;-24
2023/06/10 02:52:43;;;;;;;9.90;6.00;;;;;;;14.74;75.27;98670.45;109408;1254;72674;-23
2023/06/10 02:55:11;;;;;;;5.60;5.00;;;;;;;14.67;76.86;98663.51;109219;1254;59050;-23
2023/06/10 02:57:39;;;;;;;9.30;6.30;;;;;;;14.46;77.40;98674.60;109264;1254;60010;-23
2023/06/10 03:00:11;;;;;;;11.90;10.50;;;;;;;14.40;79.34;98670.86;109229;1254;71858;-23
2023/06/10 03:02:39;;;;;;;28.50;20.50;;;;;;;14.73;77.82;98670.60;109096;1254;73055;-23
2023/06/10 03:05:10;;;;;;;26.40;16.50;;;;;;;15.34;76.24;98668.20;109217;1254;72746;-23
2023/06/10 03:07:40;;;;;;;11.10;8.50;;;;;;;15.51;74.73;98680.88;109103;1256;58848;-23
2023/06/10 03:10:08;;;;;;;57.50;40.00;;;;;;;15.64;74.68;98670.46;109191;1254;58750;-23
2023/06/10 03:12:37;;;;;;;98.70;53.30;;;;;;;16.04;73.04;98667.39;109259;1254;71743;-23
2023/06/10 03:15:06;;;;;;;66.40;35.60;;;;;;;16.20;72.52;98668.59;109253;1254;73333;-23
2023/06/10 03:17:34;;;;;;;56.90;30.30;;;;;;;16.33;71.62;98667.17;109106;1254;71423;-23
2023/06/10 03:20:05;;;;;;;64.60;30.50;;;;;;;16.19;71.98;98670.07;109258;1254;58861;-23
2023/06/10 03:22:33;;;;;;;84.80;39.10;;;;;;;16.00;73.36;98670.83;109202;1254;58764;-23
2023/06/10 03:25:05;;;;;;;30.20;14.90;;;;;;;16.21;72.84;98669.54;109270;1254;73067;-23
2023/06/10 03:27:35;;;;;;;29.50;15.10;;;;;;;16.59;71.38;98672.50;109140;1254;74357;-23
2023/06/10 03:30:04;;;;;;;37.10;19.70;;;;;;;16.94;70.12;98673.98;109328;1254;71184;-23
2023/06/10 03:32:32;;;;;;;19.70;11.10;;;;;;;17.28;69.30;98673.31;109072;1254;59099;-23
2023/06/10 03:35:00;;;;;;;14.70;8.40;;;;;;;17.23;68.97;98672.17;109260;1254;60195;-23
2023/06/10 03:37:28;;;;;;;9.70;7.90;;;;;;;17.13;69.25;98671.00;109215;1254;71944;-24
2023/06/10 03:39:55;;;;;;;14.70;8.80;;;;;;;17.00;69.32;98673.98;109243;1254;74353;-23
2023/06/10 03:42:23;;;;;;;12.50;7.90;;;;;;;16.84;69.93;98675.62;109215;1255;71474;-23
2023/06/10 03:44:51;;;;;;;13.70;8.60;;;;;;;16.67;70.41;98679.68;109235;1256;58907;-23
2023/06/10 03:47:19;;;;;;;10.60;8.50;;;;;;;16.42;71.48;98678.36;109201;1254;59888;-23
2023/06/10 03:49:46;;;;;;;14.20;8.40;;;;;;;16.26;71.76;98673.19;109242;1255;73051;-23
2023/06/10 03:52:14;;;;;;;6.80;5.00;;;;;;;16.17;72.42;98677.85;109243;1255;74355;-23
2023/06/10 03:54:42;;;;;;;8.80;5.20;;;;;;;16.56;72.40;98674.45;109198;1255;72639;-23
2023/06/10 03:57:09;;;;;;;9.40;5.30;;;;;;;17.07;70.32;98674.63;109185;1255;60048;-23
2023/06/10 03:59:37;;;;;;;8.20;6.50;;;;;;;17.13;69.61;98677.09;109095;1256;58771;-23
2023/06/10 04:02:04;;;;;;;6.40;5.80;;;;;;;16.91;69.81;98677.85;109119;1255;73063;-23
2023/06/10 04:04:33;;;;;;;9.10;6.00;;;;;;;16.70;70.69;98677.73;109100;1255;73099;-24
2023/06/10 04:07:00;;;;;;;14.10;6.00;;;;;;;16.57;70.91;98673.79;109221;1255;72721;-23
2023/06/10 04:09:28;;;;;;;6.00;5.40;;;;;;;16.50;70.53;98674.75;109216;1256;58814;-23
2023/06/10 04:11:56;;;;;;;6.20;5.60;;;;;;;16.38;70.70;98676.91;109145;1255;59929;-23
2023/06/10 04:14:24;;;;;;;9.50;6.30;;;;;;;16.32;71.17;98677.60;109204;1256;72003;-23
2023/06/10 04:16:53;;;;;;;7.30;6.30;;;;;;;16.26;71.46;98679.99;109218;1256;74368;-23
2023/06/10 04:19:21;;;;;;;5.00;4.30;;;;;;;16.24;71.63;98676.58;109036;1260;71374;-23
2023/06/10 04:21:48;;;;;;;7.60;4.90;;;;;;;16.79;71.49;98676.73;109189;1256;59118;-23
2023/06/10 04:24:16;;;;;;;6.40;5.70;;;;;;;17.35;68.75;98678.52;109231;1260;60029;-23
2023/06/10 04:26:45;;;;;;;8.70;5.90;;;;;;;17.56;67.90;98682.61;109114;1256;72579;-23
2023/06/10 04:29:13;;;;;;;8.70;6.40;;;;;;;17.44;67.93;98682.19;109089;1255;73523;-23
2023/06/10 04:31:41;;;;;;;11.50;6.20;;;;;;;17.61;68.08;98681.80;109071;1256;70883;-24
2023/06/10 04:34:09;;;;;;;11.50;6.50;;;;;;;17.78;67.59;98684.18;109068;1256;60087;-23
2023/06/10 04:36:36;;;;;;;9.20;6.70;;;;;;;17.68;67.81;98684.36;109105;1255;58939;-23
2023/06/10 04:39:05;;;;;;;9.00;6.30;;;;;;;17.78;67.65;98686.16;109116;1260;73633;-23
2023/06/10 04:41:33;;;;;;;9.80;7.10;;;;;;;17.75;68.08;98687.18;109196;1256;74303;-23
2023/06/10 04:44:01;;;;;;;7.50;6.20;;;;;;;17.74;68.58;98692.76;109043;1255;72294;-23
2023/06/10 04:46:30;;;;;;;9.60;6.80;;;;;;;17.98;68.25;98690.34;109049;1256;60135;-23
2023/06/10 04:48:58;;;;;;;12.80;7.40;;;;;;;18.35;67.39;98688.05;109088;1254;58848;-23
2023/06/10 04:51:26;;;;;;;7.60;6.80;;;;;;;18.79;66.36;98688.60;109111;1256;73833;-23
2023/06/10 04:53:53;;;;;;;9.70;6.60;;;;;;;18.78;65.42;98692.08;109121;1256;74292;-23
2023/06/10 04:56:21;;;;;;;7.40;6.40;;;;;;;18.84;65.78;98695.88;109168;1256;72671;-23
2023/06/10 04:58:49;;;;;;;11.20;6.80;;;;;;;18.71;65.86;98694.13;109109;1261;60056;-23
2023/06/10 05:01:17;;;;;;;7.50;6.80;;;;;;;18.67;66.02;98696.75;109195;1256;60002;-23
2023/06/10 05:03:44;;;;;;;8.10;7.30;;;;;;;18.62;66.21;98691.17;109167;1256;73814;-23
2023/06/10 05:06:12;;;;;;;11.00;7.20;;;;;;;18.74;66.03;98695.36;109202;1256;74554;-23
2023/06/10 05:08:40;;;;;;;10.00;7.70;;;;;;;18.94;65.90;98693.02;109098;1258;73017;-23
2023/06/10 05:11:07;;;;;;;9.90;7.50;;;;;;;19.13;65.40;98692.44;109103;1256;58930;-24
2023/06/10 05:13:35;;;;;;;10.90;8.80;;;;;;;19.46;64.84;98689.29;109195;1257;58851;-24
2023/06/10 05:16:02;;;;;;;19.60;12.90;;;;;;;19.63;64.03;98684.73;109119;1256;73111;-23
2023/06/10 05:18:31;;;;;;;21.50;14.90;;;;;;;19.40;64.60;98690.14;109170;1256;74499;-23
2023/06/10 05:20:58;;;;;;;18.50;12.20;;;;;;;19.83;63.62;98688.58;109105;1257;72778;-23
2023/06/10 05:23:26;;;;;;;11.60;8.70;;;;;;;20.07;62.60;98690.80;109137;1257;60049;-23
2023/06/10 05:25:54;;;;;;;9.00;7.10;;;;;;;19.91;62.78;98693.67;109108;1255;60039;-23
2023/06/10 05:28:21;;;;;;;8.70;6.60;;;;;;;20.08;62.41;98691.95;109097;1256;73827;-23
2023/06/10 05:30:49;;;;;;;11.60;7.60;;;;;;;20.47;61.52;98692.96;109201;1256;73093;-23
2023/06/10 05:33:17;;;;;;;9.70;6.40;;;;;;;21.02;61.03;98694.05;109069;1257;72676;-23
2023/06/10 05:35:44;;;;;;;9.50;7.00;;;;;;;21.47;58.79;98690.96;109185;1256;58866;-23
2023/06/10 05:38:12;;;;;;;8.80;7.00;;;;;;;20.69;59.89;98692.79;109195;1260;60029;-24
2023/06/10 05:40:39;;;;;;;11.50;6.70;;;;;;;20.84;60.55;98687.90;109193;1258;72576;-23
2023/06/10 05:43:07;;;;;;;8.90;8.00;;;;;;;21.02;59.67;98690.64;109147;1257;74288;-23
2023/06/10 05:45:35;;;;;;;8.50;7.10;;;;;;;21.10;59.61;98683.96;109162;1260;72747;-23
2023/06/10 05:48:02;;;;;;;8.90;6.40;;;;;;;21.30;59.06;98690.11;109106;1256;60114;-23
2023/06/10 05:50:30;;;;;;;9.00;6.90;;;;;;;21.52;58.37;98691.21;109117;1257;60011;-23
2023/06/10 05:52:58;;;;;;;13.90;10.00;;;;;;;21.56;58.42;98694.55;109065;1262;73832;-23
2023/06/10 05:55:25;;;;;;;14.10;6.90;;;;;;;21.05;59.49;98697.20;109079;1256;74312;-24
2023/06/10 05:58:02;;;;;;;8.30;6.90;;;;;;;21.26;59.15;98694.52;109038;1256;72763;-23
2023/06/10 06:00:30;;;;;;;10.80;7.50;;;;;;;21.11;59.73;98695.86;109056;1258;60101;-23
2023/06/10 06:02:58;;;;;;;29.80;18.90;;;;;;;21.68;59.15;98693.86;109087;1256;60119;-23
2023/06/10 06:05:26;;;;;;;28.20;20.20;;;;;;;21.20;59.65;98689.70;109108;1256;73936;-23
2023/06/10 06:07:54;;;;;;;16.80;11.10;;;;;;;21.09;60.42;98688.56;109098;1258;73076;-23
2023/06/10 06:10:21;;;;;;;45.40;25.50;;;;;;;21.25;59.40;98687.67;109179;1256;71456;-23
2023/06/10 06:12:49;;;;;;;17.80;12.50;;;;;;;21.11;59.97;98686.86;109101;1257;58791;-23
2023/06/10 06:15:17;;;;;;;31.10;17.70;;;;;;;21.25;59.88;98688.90;109094;1257;58744;-23
2023/06/10 06:17:44;;;;;;;25.40;15.10;;;;;;;21.63;59.20;98690.69;109097;1257;74016;-23
2023/06/10 06:20:12;;;;;;;18.40;11.40;;;;;;;21.89;58.11;98692.68;109125;1256;74326;-23
2023/06/10 06:22:40;;;;;;;15.70;11.10;;;;;;;22.15;57.67;98691.67;109146;1257;72654;-23
2023/06/10 06:25:08;;;;;;;34.10;18.60;;;;;;;22.16;57.18;98695.30;109126;1258;60079;-23
2023/06/10 06:27:36;;;;;;;23.00;12.00;;;;;;;21.86;57.65;98692.72;109172;1256;58739;-23
2023/06/10 06:30:05;;;;;;;17.20;12.30;;;;;;;22.09;58.28;98693.77;109187;1257;72894;-23
2023/06/10 06:32:33;;;;;;;20.60;12.80;;;;;;;22.44;57.06;98688.98;109070;1257;74335;-23
2023/06/10 06:35:02;;;;;;;20.50;12.50;;;;;;;22.43;56.95;98687.05;109059;1257;72663;-23
2023/06/10 06:37:30;;;;;;;18.50;10.00;;;;;;;22.56;57.11;98684.74;109129;1256;58783;-23
2023/06/10 06:40:06;;;;;;;23.20;13.30;;;;;;;22.49;56.43;98684.55;109089;1256;60115;-23
2023/06/10 06:42:34;;;;;;;16.60;9.70;;;;;;;22.35;56.65;98679.81;109003;1256;73966;-23
2023/06/10 06:45:15;;;;;;;12.90;8.00;;;;;;;22.07;57.34;98682.73;109087;1256;74439;-23
2023/06/10 06:47:43;;;;;;;12.20;6.70;;;;;;;22.64;56.10;98680.45;109038;1257;70426;-23
2023/06/10 06:50:10;;;;;;;6.80;6.10;;;;;;;23.22;54.70;98680.09;109105;1256;60063;-23
2023/06/10 06:52:39;;;;;;;9.10;6.30;;;;;;;23.54;54.02;98678.27;109019;1263;58833;-23
2023/06/10 06:55:11;;;;;;;33.30;18.90;;;;;;;23.57;53.73;98675.24;109010;1256;72080;-23
2023/06/10 06:57:41;;;;;;;19.40;11.40;;;;;;;23.74;54.18;98678.71;108975;1256;73053;-23
2023/06/10 07:00:14;;;;;;;54.40;30.80;;;;;;;23.77;53.30;98675.87;108951;1258;72751;-23
2023/06/10 07:02:44;;;;;;;20.70;11.20;;;;;;;23.47;53.93;98673.91;109005;1257;60054;-23
2023/06/10 07:05:14;;;;;;;16.50;10.60;;;;;;;23.57;53.68;98676.39;108991;1256;60021;-23
2023/06/10 07:07:45;;;;;;;8.60;6.80;;;;;;;23.28;54.30;98672.16;108981;1257;72713;-23
2023/06/10 07:10:15;;;;;;;7.50;5.90;;;;;;;23.80;53.25;98668.69;109033;1256;73270;-23
2023/06/10 07:12:45;;;;;;;8.10;4.50;;;;;;;24.08;50.30;98669.52;108964;1256;72794;-23
2023/06/10 07:15:18;;;;;;;7.30;4.10;;;;;;;24.14;49.09;98669.48;108982;1257;60055;-23
2023/06/10 07:17:48;;;;;;;4.20;3.80;;;;;;;24.39;47.86;98665.98;108999;1257;60036;-23
2023/06/10 07:20:18;;;;;;;4.50;3.80;;;;;;;24.43;47.61;98668.70;108983;1256;73892;-25
2023/06/10 07:22:48;;;;;;;6.80;4.10;;;;;;;24.45;45.80;98665.71;109011;1257;74295;-23
2023/06/10 07:25:18;;;;;;;9.30;4.20;;;;;;;24.23;46.41;98665.56;109067;1257;72717;-23
2023/06/10 07:27:48;;;;;;;4.80;3.60;;;;;;;24.20;46.71;98663.35;108974;1257;60045;-23
2023/06/10 07:30:19;;;;;;;5.00;4.20;;;;;;;24.20;47.07;98663.89;109020;1257;60152;-23
2023/06/10 07:32:51;;;;;;;7.30;4.20;;;;;;;24.19;46.80;98665.19;109063;1257;72843;-24
2023/06/10 07:35:20;;;;;;;6.30;4.20;;;;;;;24.34;46.51;98670.09;109043;1257;73218;-24
2023/06/10 07:37:50;;;;;;;16.10;11.60;;;;;;;24.66;45.91;98670.06;108964;1257;71501;-23
2023/06/10 07:40:20;;;;;;;6.50;5.20;;;;;;;24.87;45.65;98669.96;109008;1256;61236;-23
2023/06/10 07:42:50;;;;;;;9.10;6.80;;;;;;;24.95;44.91;98670.73;109003;1257;58693;-23
2023/06/10 07:45:20;;;;;;;10.90;7.00;;;;;;;24.38;45.82;98672.08;108975;1257;73904;-23
2023/06/10 07:47:51;;;;;;;11.00;6.60;;;;;;;24.38;46.77;98678.09;109026;1257;74443;-23
2023/06/10 07:50:21;;;;;;;5.60;4.70;;;;;;;24.80;48.10;98677.75;109107;1257;72745;-23
2023/06/10 08:00:23;;;;;;;6.80;4.70;;;;;;;24.92;50.78;98676.52;102664;1293;601084;-23
2023/06/10 08:02:51;;;;;;;9.20;5.40;;;;;;;24.25;51.02;98675.16;105035;1266;61177;-23
2023/06/10 08:05:20;;;;;;;6.60;4.70;;;;;;;24.13;51.36;98672.87;104889;1267;61113;-24
2023/06/10 08:07:48;;;;;;;12.00;8.10;;;;;;;24.81;50.49;98672.04;104917;1267;72357;-23
2023/06/10 08:10:16;;;;;;;8.80;4.80;;;;;;;24.82;49.80;98671.91;104848;1269;74408;-24
2023/06/10 08:20:26;;;;;;;8.30;4.50;;;;;;;25.19;49.32;98671.61;102633;1293;599823;-23
2023/06/10 08:22:54;;;;;;;9.50;4.80;;;;;;;25.31;49.58;98668.08;104867;1267;61072;-23
2023/06/10 08:33:04;;;;;;;9.00;4.40;;;;;;;24.96;48.79;98662.38;102715;1289;600570;-23
2023/06/10 08:35:32;;;;;;;6.40;4.50;;;;;;;24.77;50.54;98665.49;104912;1267;61125;-23
2023/06/10 08:45:43;;;;;;;9.70;4.30;;;;;;;25.72;49.00;98662.08;102682;1290;599894;-23
2023/06/10 08:48:11;;;;;;;4.20;3.70;;;;;;;25.94;48.95;98660.65;104734;1270;61180;-22
2023/06/10 08:58:20;;;;;;;7.70;4.40;;;;;;;26.49;47.61;98651.45;102666;1293;600099;-22
2023/06/10 09:08:27;;;;;;;10.60;4.30;;;;;;;26.23;47.35;98651.17;102578;1295;599976;-22
2023/06/10 09:10:55;;;;;;;6.00;3.70;;;;;;;26.65;45.58;98648.88;104815;1268;61129;-22
2023/06/10 09:13:23;;;;;;;8.90;5.00;;;;;;;26.70;44.82;98646.58;104851;1267;61411;-22
2023/06/10 09:15:51;;;;;;;4.80;4.00;;;;;;;26.62;46.81;98645.27;104810;1270;70954;-22
2023/06/10 09:25:45;;;;;;;16.70;4.30;;;;;;;26.44;46.98;98641.11;102726;1290;600111;-22
2023/06/10 09:34:43;;;;;;;6.90;3.60;;;;;;;26.07;48.11;98642.78;102697;1292;599978;-22
2023/06/10 09:37:13;;;;;;;6.20;4.10;;;;;;;26.56;46.15;98635.48;104796;1266;61210;-22
2023/06/10 09:39:42;;;;;;;10.20;3.60;;;;;;;26.70;44.90;98628.15;104901;1266;61086;-22
2023/06/10 09:42:17;;;;;;;4.40;3.90;;;;;;;26.47;44.22;98627.70;104851;1265;71056;-22
2023/06/10 09:44:52;;;;;;;5.50;3.60;;;;;;;26.02;45.60;98633.04;104832;1272;73711;-22
2023/06/10 09:47:23;;;;;;;11.20;4.00;;;;;;;26.32;45.87;98626.58;103077;1263;2439552;-22
2023/06/10 09:49:53;;;;;;;4.90;3.80;;;;;;;26.00;43.62;98627.02;104980;1266;61032;-22
2023/06/10 09:52:24;;;;;;;12.10;9.20;;;;;;;26.76;42.91;98625.27;104878;1269;61119;-22
2023/06/10 09:54:53;;;;;;;6.50;5.10;;;;;;;26.66;42.21;98623.05;104855;1263;72246;-22
2023/06/10 09:57:21;;;;;;;13.30;4.20;;;;;;;26.52;42.72;98621.33;104875;1263;73090;-22
2023/06/10 09:59:52;;;;;;;7.40;3.50;;;;;;;26.63;41.69;98621.83;105033;1266;72674;-22
2023/06/10 10:02:20;;;;;;;11.70;5.40;;;;;;;26.89;40.58;98624.67;104889;1263;61187;-22
2023/06/10 10:04:48;;;;;;;6.80;2.70;;;;;;;27.81;34.73;98622.65;105146;1267;61148;-22
2023/06/10 10:07:16;;;;;;;11.30;6.80;;;;;;;28.57;31.22;98617.94;105095;1263;73121;-22
2023/06/10 10:09:44;;;;;;;11.60;6.40;;;;;;;28.72;36.32;98616.66;105059;1264;74308;-22
2023/06/10 10:12:13;;;;;;;11.80;5.60;;;;;;;28.56;37.98;98614.43;105013;1263;71650;-22
2023/06/10 10:14:45;;;;;;;7.60;4.30;;;;;;;28.31;37.54;98617.48;104857;1266;61128;-22
2023/06/10 10:17:14;;;;;;;4.70;3.50;;;;;;;27.60;38.63;98618.23;104887;1263;61072;-22
2023/06/10 10:20:00;;;;;;;7.00;3.60;;;;;;;27.37;38.28;98606.31;104677;1263;73027;-22
2023/06/10 10:22:31;;;;;;;6.20;3.00;;;;;;;27.86;33.53;98609.20;104884;1269;74282;-22
2023/06/10 10:25:01;;;;;;;5.30;3.00;;;;;;;28.25;33.09;98612.27;105031;1263;70463;-22
2023/06/10 10:27:54;;;;;;;6.20;3.20;;;;;;;28.47;33.92;98607.20;104857;1270;61270;-22
2023/06/10 10:30:22;;;;;;;4.40;3.50;;;;;;;27.43;37.02;98605.02;105106;1263;61023;-22
2023/06/10 10:33:01;;;;;;;10.60;3.50;;;;;;;27.82;37.34;98606.80;104931;1263;73037;-22
2023/06/10 10:35:29;;;;;;;7.30;3.60;;;;;;;27.26;40.41;98603.48;104961;1268;74510;-22
2023/06/10 10:37:57;;;;;;;2.80;2.40;;;;;;;27.62;41.83;98596.94;104753;1263;71493;-22
2023/06/10 10:40:25;;;;;;;8.70;3.50;;;;;;;27.77;40.87;98594.21;104899;1268;61070;-22
2023/06/10 10:42:52;;;;;;;12.60;3.80;;;;;;;27.12;41.10;98595.55;104816;1263;61264;-22
2023/06/10 10:45:21;;;;;;;8.10;3.30;;;;;;;26.70;41.63;98594.98;104849;1263;72129;-22
2023/06/10 10:47:53;;;;;;;4.50;3.20;;;;;;;26.51;41.80;98594.81;104913;1271;74315;-23
2023/06/10 11:00:58;;;;;;;5.80;3.70;;;;;;;26.69;43.00;98586.06;102687;1292;600819;-23
2023/06/10 11:03:32;;;;;;;4.40;2.90;;;;;;;26.26;44.37;98588.59;104857;1267;61130;-23
2023/06/10 11:06:00;;;;;;;10.30;3.60;;;;;;;26.44;43.88;98588.25;104753;1272;61131;-23
2023/06/10 11:08:28;;;;;;;6.70;3.40;;;;;;;26.73;42.51;98594.60;104854;1266;71022;-23
2023/06/10 11:10:56;;;;;;;10.70;3.40;;;;;;;26.47;43.39;98600.89;104851;1270;74296;-23
2023/06/10 11:13:27;;;;;;;8.20;2.90;;;;;;;26.21;43.52;98596.81;104407;1264;2638702;-24
2023/06/10 11:15:57;;;;;;;7.70;3.40;;;;;;;26.16;42.95;98593.73;104853;1268;61205;-23
2023/06/10 11:18:29;;;;;;;9.40;3.50;;;;;;;26.30;43.93;98589.82;108677;1263;58983;-22
2023/06/10 11:21:04;;;;;;;7.50;3.70;;;;;;;26.17;44.28;98592.50;108555;1262;59062;-22
2023/06/10 11:23:32;;;;;;;4.40;3.50;;;;;;;25.78;44.66;98592.09;108646;1264;71112;-22
2023/06/10 11:26:16;;;;;;;6.40;4.00;;;;;;;25.67;45.37;98592.61;108769;1263;73220;-22
2023/06/10 11:28:46;;;;;;;8.80;4.30;;;;;;;26.02;45.33;98589.14;108739;1263;71416;-22
2023/06/10 11:31:44;;;;;;;4.10;3.60;;;;;;;26.16;45.32;98588.55;108768;1264;60028;-22
2023/06/10 11:34:12;;;;;;;5.80;4.00;;;;;;;25.99;44.48;98583.89;108709;1262;59178;-22
2023/06/10 11:36:42;;;;;;;5.70;4.10;;;;;;;26.37;43.47;98583.41;108772;1263;73182;-22
2023/06/10 11:39:10;;;;;;;6.90;4.70;;;;;;;26.55;43.04;98581.02;108707;1263;74406;-22
2023/06/10 11:41:38;;;;;;;8.80;4.50;;;;;;;26.33;44.06;98573.95;108836;1264;70759;-22
2023/06/10 11:44:13;;;;;;;9.50;4.50;;;;;;;25.95;45.34;98575.29;108729;1264;60138;-22
2023/06/10 11:46:47;;;;;;;6.90;3.80;;;;;;;26.43;44.46;98573.19;108737;1262;60168;-22
2023/06/10 11:49:15;;;;;;;7.20;4.50;;;;;;;26.04;45.51;98568.95;108704;1263;72213;-22
2023/06/10 11:51:48;;;;;;;13.10;9.20;;;;;;;26.01;46.00;98570.65;108741;1263;73564;-22
2023/06/10 11:54:17;;;;;;;15.20;10.40;;;;;;;25.89;45.36;98568.72;108717;1268;72660;-22
2023/06/10 11:56:45;;;;;;;25.10;16.90;;;;;;;25.82;45.69;98572.23;108730;1263;60061;-22
2023/06/10 11:59:13;;;;;;;16.70;7.10;;;;;;;25.67;45.49;98571.02;108728;1264;60084;-22
2023/06/10 12:01:44;;;;;;;20.80;13.50;;;;;;;25.62;45.56;98583.98;108713;1264;73083;-22
2023/06/10 12:04:13;;;;;;;7.60;4.50;;;;;;;25.35;46.24;98583.80;108565;1264;73058;-22
2023/06/10 12:06:50;;;;;;;13.20;7.10;;;;;;;25.03;46.81;98579.05;108590;1264;72651;-22
2023/06/10 12:09:25;;;;;;;10.70;4.80;;;;;;;25.20;47.16;98576.13;108548;1264;60055;-22
2023/06/10 12:12:05;;;;;;;6.40;3.70;;;;;;;24.81;47.04;98571.09;108612;1267;58734;-22
2023/06/10 12:14:57;;;;;;;5.50;4.80;;;;;;;24.83;47.15;98565.55;108489;1267;72354;-22
2023/06/10 12:17:32;;;;;;;6.00;3.50;;;;;;;25.07;46.94;98557.74;108608;1264;74729;-22
2023/06/10 12:20:00;;;;;;;11.10;5.10;;;;;;;24.65;47.53;98552.08;108657;1267;71480;-22
2023/06/10 12:22:36;;;;;;;6.00;3.30;;;;;;;24.69;47.88;98555.78;108614;1267;60105;-23
2023/06/10 12:25:06;;;;;;;14.00;5.20;;;;;;;24.65;47.23;98550.51;108567;1266;60069;-22
2023/06/10 12:27:34;;;;;;;11.60;5.20;;;;;;;24.52;47.75;98563.89;108667;1264;71996;-22
2023/06/10 12:30:04;;;;;;;3.80;2.90;;;;;;;24.31;47.91;98558.73;108709;1265;74309;-22
2023/06/10 12:32:42;;;;;;;9.20;4.80;;;;;;;24.38;47.34;98562.63;108632;1269;72809;-22
2023/06/10 12:35:12;;;;;;;5.80;3.40;;;;;;;24.11;48.26;98560.18;108595;1263;60196;-22
2023/06/10 12:37:41;;;;;;;13.00;4.60;;;;;;;23.91;48.41;98556.02;108717;1265;58826;-22
2023/06/10 12:40:10;;;;;;;10.20;4.60;;;;;;;23.88;47.89;98557.46;108716;1266;72843;-22
2023/06/10 12:42:38;;;;;;;8.60;3.40;;;;;;;23.92;47.80;98551.16;108655;1267;73198;-22